Time;durP1;ratioP1;P1;durP2;ratioP2;P2;SDS_P1;SDS_P2;PMS_P1;PMS_P2;Temp;Humidity;BMP_temperature;BMP_pressure;BME280_temperature;BME280_humidity;BME280_pressure;Samples;Min_cycle;Max_cycle;Signal;HPM_P1;HPM_P2
2022/08/08 00:00:16;;;;;;;4.20;4.10;;;;;;;;;;5949154;24;20871;-90
2022/08/08 00:03:01;;;;;;;4.40;4.10;;;;;;;;;;5950724;24;20411;-90
2022/08/08 00:05:36;;;;;;;4.70;4.40;;;;;;;;;;5950020;24;20466;-90
2022/08/08 00:08:21;;;;;;;4.30;4.30;;;;;;;;;;5950955;24;20848;-90
2022/08/08 00:10:59;;;;;;;4.97;4.78;;;;;;;;;;5948641;24;20439;-88
2022/08/08 00:13:30;;;;;;;5.50;5.20;;;;;;;;;;5951317;24;20385;-90
2022/08/08 00:16:03;;;;;;;5.57;5.18;;;;;;;;;;5949077;24;20430;-90
2022/08/08 00:18:29;;;;;;;;;;;;;;;;;;5952060;24;20039;-90
2022/08/08 00:20:57;;;;;;;4.23;4.13;;;;;;;;;;5948960;24;20536;-91
2022/08/08 00:23:34;;;;;;;3.40;3.40;;;;;;;;;;5950465;24;20434;-91
2022/08/08 00:26:02;;;;;;;4.60;4.40;;;;;;;;;;5950519;24;20387;-90
2022/08/08 00:28:30;;;;;;;4.20;4.20;;;;;;;;;;5951464;24;20169;-89
2022/08/08 00:30:57;;;;;;;4.60;4.50;;;;;;;;;;5948593;24;20379;-91
2022/08/08 00:33:28;;;;;;;3.90;3.80;;;;;;;;;;5954742;24;20139;-91
2022/08/08 00:36:05;;;;;;;4.47;4.38;;;;;;;;;;5948911;24;20465;-90
2022/08/08 00:38:31;;;;;;;;;;;;;;;;;;5954858;24;20024;-91
2022/08/08 00:40:57;;;;;;;;;;;;;;;;;;5952667;24;20218;-91
2022/08/08 00:43:23;;;;;;;;;;;;;;;;;;5953305;24;19903;-92
2022/08/08 00:45:49;;;;;;;;;;;;;;;;;;5952713;24;19911;-91
2022/08/08 00:48:15;;;;;;;;;;;;;;;;;;5954609;24;19963;-90
2022/08/08 00:50:40;;;;;;;;;;;;;;;;;;5952048;24;19909;-92
2022/08/08 00:53:06;;;;;;;;;;;;;;;;;;5953717;24;19903;-90
2022/08/08 00:55:32;;;;;;;;;;;;;;;;;;5950713;24;19903;-90
2022/08/08 00:57:58;;;;;;;;;;;;;;;;;;5953685;24;19970;-90
2022/08/08 01:00:24;;;;;;;;;;;;;;;;;;5950542;24;20237;-90
2022/08/08 01:02:50;;;;;;;;;;;;;;;;;;5952486;24;19903;-90
2022/08/08 01:05:16;;;;;;;;;;;;;;;;;;5953642;24;19917;-89
2022/08/08 01:07:42;;;;;;;;;;;;;;;;;;5964260;24;19903;-90
2022/08/08 01:10:08;;;;;;;;;;;;;;;;;;5961475;24;19907;-89
2022/08/08 01:12:35;;;;;;;;;;;;;;;;;;5953716;24;19902;-91
2022/08/08 01:15:01;;;;;;;;;;;;;;;;;;5958882;24;19930;-89
2022/08/08 01:17:27;;;;;;;;;;;;;;;;;;5964149;24;19903;-91
2022/08/08 01:19:53;;;;;;;;;;;;;;;;;;5969201;24;19932;-91
2022/08/08 01:22:19;;;;;;;;;;;;;;;;;;5956244;24;19910;-90
2022/08/08 01:24:44;;;;;;;;;;;;;;;;;;5949405;24;19952;-91
2022/08/08 01:27:10;;;;;;;;;;;;;;;;;;5948599;24;19903;-90
2022/08/08 01:29:36;;;;;;;;;;;;;;;;;;5950815;24;19904;-90
2022/08/08 01:32:02;;;;;;;;;;;;;;;;;;5950261;24;19903;-90
2022/08/08 01:34:28;;;;;;;;;;;;;;;;;;5952009;24;19907;-90
2022/08/08 01:36:54;;;;;;;;;;;;;;;;;;5948383;24;19986;-90
2022/08/08 01:39:19;;;;;;;;;;;;;;;;;;5949906;24;19952;-89
2022/08/08 01:41:45;;;;;;;;;;;;;;;;;;5948496;24;20491;-91
2022/08/08 01:44:11;;;;;;;;;;;;;;;;;;5950609;24;19909;-91
2022/08/08 01:46:37;;;;;;;;;;;;;;;;;;5949252;24;19911;-91
2022/08/08 01:49:03;;;;;;;;;;;;;;;;;;5952646;24;19903;-90
2022/08/08 01:51:29;;;;;;;;;;;;;;;;;;5949930;24;20236;-91
2022/08/08 01:53:55;;;;;;;;;;;;;;;;;;5950500;24;20016;-90
2022/08/08 01:56:21;;;;;;;;;;;;;;;;;;5949096;24;19903;-90
2022/08/08 01:58:46;;;;;;;;;;;;;;;;;;5952550;24;20398;-91
2022/08/08 02:01:12;;;;;;;;;;;;;;;;;;5948599;24;19903;-91
2022/08/08 02:03:38;;;;;;;;;;;;;;;;;;5950620;24;19907;-89
2022/08/08 02:06:04;;;;;;;5.40;5.00;;;;;;;;;;5947376;24;20405;-90
2022/08/08 02:08:39;;;;;;;5.13;4.93;;;;;;;;;;5949215;24;20371;-89
2022/08/08 02:11:05;;;;;;;;;;;;;;;;;;5948094;24;20008;-89
2022/08/08 02:13:31;;;;;;;;;;;;;;;;;;5950522;24;19910;-89
2022/08/08 02:15:57;;;;;;;;;;;;;;;;;;5948639;24;19910;-90
2022/08/08 02:18:23;;;;;;;;;;;;;;;;;;5950575;24;19903;-90
2022/08/08 02:22:30;;;;;;;;;;;;;;;;;;5950077;24;19902;-90
2022/08/08 02:23:35;;;;;;;;;;;;;;;;;;5949418;24;19977;-90
2022/08/08 02:26:00;;;;;;;;;;;;;;;;;;5948300;24;19938;-90
2022/08/08 02:28:26;;;;;;;;;;;;;;;;;;5951108;24;19922;-88
2022/08/08 02:30:52;;;;;;;;;;;;;;;;;;5949717;24;19956;-91
2022/08/08 02:33:18;;;;;;;;;;;;;;;;;;5950436;24;19913;-91
2022/08/08 02:35:44;;;;;;;;;;;;;;;;;;5948501;24;19903;-90
2022/08/08 02:38:10;;;;;;;;;;;;;;;;;;5951046;24;19907;-91
2022/08/08 02:40:36;;;;;;;;;;;;;;;;;;5949622;24;19909;-91
2022/08/08 02:43:02;;;;;;;;;;;;;;;;;;5957607;24;19903;-91
2022/08/08 02:45:27;;;;;;;;;;;;;;;;;;5959385;24;19914;-89
2022/08/08 02:47:53;;;;;;;;;;;;;;;;;;5958825;24;19986;-87
2022/08/08 02:50:19;;;;;;;;;;;;;;;;;;5959730;24;19903;-89
2022/08/08 02:52:45;;;;;;;;;;;;;;;;;;5955893;24;19907;-92
2022/08/08 02:55:11;;;;;;;;;;;;;;;;;;5950816;24;19903;-92
2022/08/08 02:57:37;;;;;;;;;;;;;;;;;;5949255;24;19913;-91
2022/08/08 03:00:06;;;;;;;;;;;;;;;;;;5958174;24;19910;-94
2022/08/08 03:02:32;;;;;;;;;;;;;;;;;;5983161;23;19926;-91
2022/08/08 03:04:58;;;;;;;;;;;;;;;;;;5979049;24;19930;-91
2022/08/08 03:07:24;;;;;;;;;;;;;;;;;;5982007;24;19963;-93
2022/08/08 03:09:50;;;;;;;;;;;;;;;;;;5981050;23;19919;-95
2022/08/08 03:12:15;;;;;;;;;;;;;;;;;;6005152;23;19913;-95
2022/08/08 03:14:42;;;;;;;;;;;;;;;;;;6001586;24;20256;-95
2022/08/08 03:17:08;;;;;;;;;;;;;;;;;;6005255;24;19942;-94
2022/08/08 03:19:34;;;;;;;;;;;;;;;;;;6003948;24;19919;-93
2022/08/08 03:22:02;;;;;;;;;;;;;;;;;;6000850;24;19910;-94
2022/08/08 03:24:28;;;;;;;;;;;;;;;;;;5998982;24;19902;-93
2022/08/08 03:26:54;;;;;;;;;;;;;;;;;;6001801;24;19910;-92
2022/08/08 03:29:20;;;;;;;;;;;;;;;;;;6003393;24;19919;-93
2022/08/08 03:34:31;;;;;;;;;;;;;;;;;;5999683;24;19931;-94
2022/08/08 03:36:57;;;;;;;4.97;4.82;;;;;;;;;;6001010;24;20395;-93
2022/08/08 03:39:23;;;;;;;4.70;4.50;;;;;;;;;;5999452;24;20189;-93
2022/08/08 03:41:49;;;;;;;;;;;;;;;;;;5999984;24;20241;-92
2022/08/08 03:44:15;;;;;;;;;;;;;;;;;;6004616;23;19936;-96
2022/08/08 03:46:44;;;;;;;;;;;;;;;;;;6003905;24;19978;-95
2022/08/08 03:49:09;;;;;;;;;;;;;;;;;;6003655;24;19909;-95
2022/08/08 03:51:35;;;;;;;;;;;;;;;;;;6008088;23;19894;-90
2022/08/08 03:54:01;;;;;;;;;;;;;;;;;;6009030;23;19901;-93
2022/08/08 03:56:27;;;;;;;;;;;;;;;;;;6006324;24;19946;-95
2022/08/08 03:58:53;;;;;;;;;;;;;;;;;;6005450;24;19990;-94
2022/08/08 04:01:19;;;;;;;;;;;;;;;;;;6001109;24;19897;-95
2022/08/08 04:03:45;;;;;;;;;;;;;;;;;;6006394;23;19895;-92
2022/08/08 04:06:11;;;;;;;;;;;;;;;;;;6007986;24;19954;-94
2022/08/08 04:08:37;;;;;;;;;;;;;;;;;;5980646;24;19906;-94
2022/08/08 04:11:03;;;;;;;;;;;;;;;;;;5975795;24;19921;-91
2022/08/08 04:13:29;;;;;;;;;;;;;;;;;;5977345;24;19907;-94
2022/08/08 04:15:55;;;;;;;;;;;;;;;;;;5969244;24;19921;-88
2022/08/08 04:18:21;;;;;;;;;;;;;;;;;;5991326;24;19943;-93
2022/08/08 04:20:47;;;;;;;;;;;;;;;;;;5974344;24;19906;-93
2022/08/08 04:23:13;;;;;;;;;;;;;;;;;;5976697;24;19910;-93
2022/08/08 04:28:09;;;;;;;;;;;;;;;;;;5974016;23;19927;-93
2022/08/08 04:30:35;;;;;;;;;;;;;;;;;;5982541;23;19930;-90
2022/08/08 04:33:04;;;;;;;;;;;;;;;;;;5982432;23;19939;-94
2022/08/08 04:35:31;;;;;;;4.20;4.10;;;;;;;;;;5981181;23;19895;-93
2022/08/08 04:37:57;;;;;;;;;;;;;;;;;;5982556;24;20248;-94
2022/08/08 04:40:23;;;;;;;;;;;;;;;;;;5979328;24;19902;-94
2022/08/08 04:42:51;;;;;;;5.23;4.93;;;;;;;;;;5979816;24;20215;-90
2022/08/08 04:47:54;;;;;;;5.53;5.22;;;;;;;;;;6027017;23;20488;-93
2022/08/08 04:50:21;;;;;;;5.80;5.60;;;;;;;;;;6000434;23;20164;-93
2022/08/08 04:52:47;;;;;;;5.53;5.33;;;;;;;;;;6005556;23;20414;-94
2022/08/08 04:55:13;;;;;;;5.60;5.07;;;;;;;;;;6001657;23;20411;-94
2022/08/08 04:57:39;;;;;;;5.63;5.43;;;;;;;;;;6006059;23;20468;-93
2022/08/08 05:00:06;;;;;;;4.77;4.67;;;;;;;;;;6005705;23;20437;-93
2022/08/08 05:02:32;;;;;;;5.10;4.90;;;;;;;;;;6005002;23;20421;-94
2022/08/08 05:05:04;;;;;;;5.50;5.10;;;;;;;;;;5979731;24;20429;-93
2022/08/08 05:07:31;;;;;;;6.30;5.90;;;;;;;;;;5974700;24;20448;-93
2022/08/08 05:09:57;;;;;;;5.70;5.20;;;;;;;;;;5975851;24;20406;-92
2022/08/08 05:12:23;;;;;;;5.53;5.33;;;;;;;;;;6000965;24;20382;-94
2022/08/08 05:14:50;;;;;;;5.87;5.57;;;;;;;;;;5975493;24;20414;-94
2022/08/08 05:17:16;;;;;;;5.43;5.00;;;;;;;;;;5977653;24;20385;-93
2022/08/08 05:19:42;;;;;;;5.30;5.10;;;;;;;;;;5977916;24;20393;-93
2022/08/08 05:22:09;;;;;;;5.97;5.47;;;;;;;;;;5975566;24;20416;-93
2022/08/08 05:24:35;;;;;;;6.83;5.57;;;;;;;;;;6001256;24;20453;-92
2022/08/08 05:27:01;;;;;;;5.50;5.10;;;;;;;;;;5975571;24;20465;-93
2022/08/08 05:29:28;;;;;;;5.00;4.90;;;;;;;;;;5975672;24;20418;-94
2022/08/08 05:31:56;;;;;;;6.40;5.00;;;;;;;;;;5977074;24;20482;-96
2022/08/08 05:34:41;;;;;;;;;;;;;;;;;;5976377;24;20715;-95
2022/08/08 05:37:07;;;;;;;;;;;;;;;;;;5973743;24;19921;-90
2022/08/08 05:39:33;;;;;;;;;;;;;;;;;;5974389;24;19907;-94
2022/08/08 05:42:01;;;;;;;5.60;5.25;;;;;;;;;;5969979;24;20344;-94
2022/08/08 05:44:33;;;;;;;5.40;5.20;;;;;;;;;;5974427;24;20174;-95
2022/08/08 05:47:00;;;;;;;5.57;5.33;;;;;;;;;;5968018;24;20453;-94
2022/08/08 05:49:26;;;;;;;5.07;4.83;;;;;;;;;;5965707;24;20409;-94
2022/08/08 05:51:53;;;;;;;6.40;5.80;;;;;;;;;;5970941;24;20437;-91
2022/08/08 05:54:19;;;;;;;6.43;5.93;;;;;;;;;;5968301;24;20377;-94
2022/08/08 05:56:48;;;;;;;5.88;5.57;;;;;;;;;;5970037;24;20445;-94
2022/08/08 05:59:23;;;;;;;6.55;5.95;;;;;;;;;;5969718;24;20380;-93
2022/08/08 06:01:53;;;;;;;6.15;5.93;;;;;;;;;;5966772;24;20368;-94
2022/08/08 06:04:20;;;;;;;6.03;5.72;;;;;;;;;;5968592;24;20405;-95
2022/08/08 06:06:48;;;;;;;6.50;6.20;;;;;;;;;;5969234;24;20965;-91
2022/08/08 06:09:15;;;;;;;8.07;7.47;;;;;;;;;;5976009;24;20388;-94
2022/08/08 06:11:42;;;;;;;8.15;7.75;;;;;;;;;;5971869;24;20373;-95
2022/08/08 06:14:08;;;;;;;8.30;7.80;;;;;;;;;;5975702;24;20378;-91
2022/08/08 06:16:35;;;;;;;8.00;7.40;;;;;;;;;;5974802;24;20381;-94
2022/08/08 06:19:02;;;;;;;8.60;7.90;;;;;;;;;;5976020;24;20406;-88
2022/08/08 06:21:29;;;;;;;7.95;7.35;;;;;;;;;;5976073;24;20381;-95
2022/08/08 06:23:55;;;;;;;7.45;6.95;;;;;;;;;;5972895;24;20457;-93
2022/08/08 06:26:24;;;;;;;7.50;6.90;;;;;;;;;;5972850;24;20397;-91
2022/08/08 06:29:20;;;;;;;8.18;7.53;;;;;;;;;;5975299;24;20377;-92
2022/08/08 06:32:06;;;;;;;7.47;6.93;;;;;;;;;;5881638;24;20375;-92
2022/08/08 06:34:36;;;;;;;12.85;9.30;;;;;;;;;;5979473;24;20369;-92
2022/08/08 06:37:03;;;;;;;8.33;7.73;;;;;;;;;;5979038;24;20386;-93
2022/08/08 06:39:33;;;;;;;7.90;7.20;;;;;;;;;;5981948;24;20424;-92
2022/08/08 06:42:30;;;;;;;8.20;7.80;;;;;;;;;;5966198;23;20444;-91
2022/08/08 06:56:40;;;;;;;8.13;7.63;;;;;;;;;;5985320;23;20612;-89
2022/08/08 06:59:07;;;;;;;7.10;6.80;;;;;;;;;;5980763;24;20425;-90
2022/08/08 07:02:06;;;;;;;7.60;7.27;;;;;;;;;;5981962;24;20434;-91
2022/08/08 07:04:40;;;;;;;8.60;8.00;;;;;;;;;;5981567;24;20497;-91
2022/08/08 07:10:19;;;;;;;6.87;6.57;;;;;;;;;;5995393;23;20493;-94
2022/08/08 07:15:59;;;;;;;7.77;7.27;;;;;;;;;;5997397;23;20459;-93
2022/08/08 07:26:16;;;;;;;7.57;7.17;;;;;;;;;;6004537;23;20448;-92
2022/08/08 07:28:44;;;;;;;7.13;6.83;;;;;;;;;;6004792;23;20456;-92
2022/08/08 07:31:10;;;;;;;7.57;7.00;;;;;;;;;;5961215;23;20465;-93
2022/08/08 07:33:38;;;;;;;7.80;7.30;;;;;;;;;;5991260;23;20565;-88
2022/08/08 07:36:07;;;;;;;6.60;6.30;;;;;;;;;;5973907;24;20415;-91
2022/08/08 07:38:34;;;;;;;7.63;7.27;;;;;;;;;;5921301;24;20383;-93
2022/08/08 07:41:00;;;;;;;7.57;7.17;;;;;;;;;;5919595;24;20427;-93
2022/08/08 07:43:30;;;;;;;7.80;7.30;;;;;;;;;;5945615;24;20482;-90
2022/08/08 07:45:56;;;;;;;7.77;7.27;;;;;;;;;;5924468;24;20459;-90
2022/08/08 07:48:22;;;;;;;9.00;7.30;;;;;;;;;;5923763;24;20439;-91
2022/08/08 07:50:53;;;;;;;6.50;6.10;;;;;;;;;;5925449;24;20499;-93
2022/08/08 07:53:24;;;;;;;7.00;6.40;;;;;;;;;;5926263;24;20407;-92
2022/08/08 07:55:51;;;;;;;6.40;6.10;;;;;;;;;;5959210;23;20469;-90
2022/08/08 07:58:17;;;;;;;7.63;7.03;;;;;;;;;;5981410;24;20413;-91
2022/08/08 08:00:47;;;;;;;6.63;6.27;;;;;;;;;;5976750;23;20440;-88
2022/08/08 08:08:38;;;;;;;7.30;6.70;;;;;;;;;;5998407;23;20554;-92
2022/08/08 08:11:06;;;;;;;8.23;7.53;;;;;;;;;;5997847;23;20446;-93
2022/08/08 08:13:40;;;;;;;6.87;6.47;;;;;;;;;;5964820;23;20517;-90
2022/08/08 08:16:08;;;;;;;7.03;6.73;;;;;;;;;;5942970;23;20514;-92
2022/08/08 08:18:45;;;;;;;6.47;6.07;;;;;;;;;;5998510;23;20402;-91
2022/08/08 08:21:18;;;;;;;6.90;6.30;;;;;;;;;;5981832;23;20520;-92
2022/08/08 08:23:44;;;;;;;5.87;5.47;;;;;;;;;;5977630;23;20485;-92
2022/08/08 08:26:12;;;;;;;6.83;6.53;;;;;;;;;;5943019;24;20434;-89
2022/08/08 08:28:39;;;;;;;5.87;5.57;;;;;;;;;;5943880;24;20406;-90
2022/08/08 08:31:05;;;;;;;6.47;6.17;;;;;;;;;;5949813;24;20429;-92
2022/08/08 08:33:32;;;;;;;6.63;6.13;;;;;;;;;;5951212;24;20407;-91
2022/08/08 08:35:58;;;;;;;5.90;5.60;;;;;;;;;;5949329;24;20398;-91
2022/08/08 08:38:24;;;;;;;6.30;5.70;;;;;;;;;;5941210;24;20399;-92
2022/08/08 08:40:50;;;;;;;5.57;5.30;;;;;;;;;;5932838;24;20445;-91
2022/08/08 08:43:20;;;;;;;6.67;6.37;;;;;;;;;;5932066;24;20865;-91
2022/08/08 08:45:49;;;;;;;6.10;5.70;;;;;;;;;;5956302;24;20426;-89
2022/08/08 08:48:17;;;;;;;6.83;6.27;;;;;;;;;;5930905;24;20410;-89
2022/08/08 08:50:46;;;;;;;5.90;5.60;;;;;;;;;;5934312;24;20478;-90
2022/08/08 08:53:12;;;;;;;5.83;5.53;;;;;;;;;;5932154;24;20407;-89
2022/08/08 08:55:39;;;;;;;5.63;5.40;;;;;;;;;;5937205;24;20406;-90
2022/08/08 08:58:06;;;;;;;6.03;5.57;;;;;;;;;;5938099;24;20406;-90
2022/08/08 09:00:34;;;;;;;5.60;5.30;;;;;;;;;;5936766;24;20417;-91
2022/08/08 09:03:01;;;;;;;5.20;5.00;;;;;;;;;;5932479;24;20469;-92
2022/08/08 09:05:28;;;;;;;5.43;5.03;;;;;;;;;;5930375;24;20433;-91
2022/08/08 09:07:58;;;;;;;7.00;5.67;;;;;;;;;;5930459;24;20410;-95
2022/08/08 09:10:27;;;;;;;5.80;5.43;;;;;;;;;;5945610;24;20733;-92
2022/08/08 09:12:54;;;;;;;5.60;5.40;;;;;;;;;;5971775;24;20411;-91
2022/08/08 09:15:20;;;;;;;5.73;5.30;;;;;;;;;;5941063;24;20394;-90
2022/08/08 09:17:47;;;;;;;5.00;4.80;;;;;;;;;;5939778;24;20446;-92
2022/08/08 09:20:13;;;;;;;5.63;5.40;;;;;;;;;;5946559;24;20478;-92
2022/08/08 09:22:40;;;;;;;4.60;4.40;;;;;;;;;;5944125;24;20405;-90
2022/08/08 09:25:07;;;;;;;5.33;5.03;;;;;;;;;;5967778;24;20394;-92
2022/08/08 09:27:34;;;;;;;5.87;5.50;;;;;;;;;;5971109;24;20872;-91
2022/08/08 09:30:03;;;;;;;5.10;4.57;;;;;;;;;;5971408;24;20426;-95
2022/08/08 09:32:43;;;;;;;5.17;4.77;;;;;;;;;;5975755;24;20394;-93
2022/08/08 09:35:14;;;;;;;4.53;4.33;;;;;;;;;;5974866;24;20407;-89
2022/08/08 09:37:47;;;;;;;5.23;4.93;;;;;;;;;;5963584;23;20453;-94
2022/08/08 09:42:55;;;;;;;4.40;4.00;;;;;;;;;;5990040;23;20453;-91
2022/08/08 09:45:24;;;;;;;4.53;4.30;;;;;;;;;;5964892;24;20386;-91
2022/08/08 09:47:50;;;;;;;4.57;4.37;;;;;;;;;;5960432;24;21199;-91
2022/08/08 09:50:17;;;;;;;4.27;4.17;;;;;;;;;;5961200;24;20770;-89
2022/08/08 09:52:51;;;;;;;7.63;4.83;;;;;;;;;;5959830;24;20410;-91
2022/08/08 09:55:17;;;;;;;4.07;3.90;;;;;;;;;;5960739;24;20437;-91
2022/08/08 09:57:48;;;;;;;4.50;4.40;;;;;;;;;;5959515;24;20405;-91
2022/08/08 10:00:15;;;;;;;4.93;4.60;;;;;;;;;;5985968;24;20874;-92
2022/08/08 10:02:45;;;;;;;4.43;4.33;;;;;;;;;;5958028;24;20437;-91
2022/08/08 10:05:14;;;;;;;4.37;4.27;;;;;;;;;;5957770;24;20400;-89
2022/08/08 10:08:01;;;;;;;3.77;3.77;;;;;;;;;;5967553;24;20398;-90
2022/08/08 10:10:37;;;;;;;4.30;4.10;;;;;;;;;;5971528;24;20393;-92
2022/08/08 10:13:29;;;;;;;4.37;4.17;;;;;;;;;;5993916;24;20370;-93
2022/08/08 10:16:00;;;;;;;4.53;4.33;;;;;;;;;;5968509;24;20437;-90
2022/08/08 10:18:29;;;;;;;3.87;3.67;;;;;;;;;;5966044;24;20404;-90
2022/08/08 10:21:01;;;;;;;4.70;4.40;;;;;;;;;;5968209;24;20478;-92
2022/08/08 10:23:39;;;;;;;4.33;4.23;;;;;;;;;;5970287;24;20438;-93
2022/08/08 10:28:52;;;;;;;4.03;3.93;;;;;;;;;;5999151;23;20464;-90
2022/08/08 10:34:38;;;;;;;5.00;4.80;;;;;;;;;;5975401;23;20497;-94
2022/08/08 10:37:32;;;;;;;4.83;4.47;;;;;;;;;;5975283;24;20441;-92
2022/08/08 10:40:00;;;;;;;5.77;5.13;;;;;;;;;;5979502;23;20600;-92
2022/08/08 10:42:33;;;;;;;4.37;4.27;;;;;;;;;;5975044;24;20406;-92
2022/08/08 10:45:03;;;;;;;4.90;4.60;;;;;;;;;;5975571;24;20381;-91
2022/08/08 10:47:29;;;;;;;4.50;4.40;;;;;;;;;;5978226;23;20358;-90
2022/08/08 10:49:57;;;;;;;4.27;3.97;;;;;;;;;;5999424;23;20468;-92
2022/08/08 10:52:27;;;;;;;5.23;4.93;;;;;;;;;;5977985;24;20424;-93
2022/08/08 10:54:59;;;;;;;4.03;3.83;;;;;;;;;;5999897;24;20404;-94
2022/08/08 10:57:25;;;;;;;4.70;4.60;;;;;;;;;;5977112;24;20899;-94
2022/08/08 10:59:56;;;;;;;5.60;5.40;;;;;;;;;;5980185;24;20410;-92
2022/08/08 11:02:33;;;;;;;4.43;4.20;;;;;;;;;;5979853;24;20396;-94
2022/08/08 11:05:00;;;;;;;3.70;3.50;;;;;;;;;;5977818;24;20434;-93
2022/08/08 11:07:31;;;;;;;4.00;3.80;;;;;;;;;;5978518;24;20431;-90
2022/08/08 11:12:44;;;;;;;3.93;3.57;;;;;;;;;;6024431;23;20455;-93
2022/08/08 11:15:12;;;;;;;3.83;3.67;;;;;;;;;;6003662;23;20396;-92
2022/08/08 11:17:40;;;;;;;4.10;4.00;;;;;;;;;;5992404;23;20396;-91
2022/08/08 11:20:08;;;;;;;3.70;3.60;;;;;;;;;;6003301;23;20385;-92
2022/08/08 11:22:36;;;;;;;5.73;4.23;;;;;;;;;;6003767;23;20404;-92
2022/08/08 11:25:05;;;;;;;3.60;3.40;;;;;;;;;;6002818;23;20437;-93
2022/08/08 11:27:35;;;;;;;4.50;4.40;;;;;;;;;;6005035;23;20397;-92
2022/08/08 11:30:03;;;;;;;3.57;3.37;;;;;;;;;;6006575;23;20400;-94
2022/08/08 11:32:36;;;;;;;3.90;3.70;;;;;;;;;;5982559;23;20469;-94
2022/08/08 11:35:09;;;;;;;4.00;3.80;;;;;;;;;;5979457;24;20398;-93
2022/08/08 11:37:37;;;;;;;3.60;3.30;;;;;;;;;;5957099;23;21438;-89
2022/08/08 11:40:05;;;;;;;3.40;3.30;;;;;;;;;;5974542;24;20403;-94
2022/08/08 11:42:31;;;;;;;3.53;3.40;;;;;;;;;;5971629;24;20403;-92
2022/08/08 11:45:01;;;;;;;3.97;3.70;;;;;;;;;;5975831;24;20395;-93
2022/08/08 11:47:27;;;;;;;3.20;3.20;;;;;;;;;;5951447;23;20483;-95
2022/08/08 11:49:57;;;;;;;5.40;4.90;;;;;;;;;;5976826;23;20406;-93
2022/08/08 12:00:46;;;;;;;2.87;2.87;;;;;;;;;;6002028;23;20457;-95
2022/08/08 12:11:01;;;;;;;4.10;3.90;;;;;;;;;;6002450;23;20465;-93
2022/08/08 12:13:31;;;;;;;4.73;4.50;;;;;;;;;;5979068;23;20422;-94
2022/08/08 12:18:42;;;;;;;3.90;3.80;;;;;;;;;;5970576;23;20438;-94
2022/08/08 12:24:03;;;;;;;4.57;4.30;;;;;;;;;;5999051;23;20441;-92
2022/08/08 12:29:21;;;;;;;4.40;4.30;;;;;;;;;;5965769;23;20500;-94
2022/08/08 12:34:34;;;;;;;4.00;3.27;;;;;;;;;;5971207;23;20473;-94
2022/08/08 12:37:07;;;;;;;4.10;3.90;;;;;;;;;;5972310;24;20457;-92
2022/08/08 12:39:33;;;;;;;5.47;4.60;;;;;;;;;;5960197;24;20758;-92
2022/08/08 12:41:59;;;;;;;3.90;3.73;;;;;;;;;;5960616;24;20402;-89
2022/08/08 12:44:29;;;;;;;5.77;4.30;;;;;;;;;;5962719;24;20410;-92
2022/08/08 12:46:56;;;;;;;4.03;3.80;;;;;;;;;;5961194;24;20394;-94
2022/08/08 12:49:29;;;;;;;3.80;3.70;;;;;;;;;;5956888;24;20410;-90
2022/08/08 12:51:55;;;;;;;4.07;3.90;;;;;;;;;;5959682;24;20466;-91
2022/08/08 12:54:22;;;;;;;4.10;4.00;;;;;;;;;;5948781;24;20403;-92
2022/08/08 12:56:49;;;;;;;3.60;3.50;;;;;;;;;;5957672;24;20426;-92
2022/08/08 12:59:16;;;;;;;4.20;3.90;;;;;;;;;;5958239;24;20430;-91
2022/08/08 13:01:49;;;;;;;3.80;3.80;;;;;;;;;;5956431;24;20461;-91
2022/08/08 13:04:19;;;;;;;4.80;4.70;;;;;;;;;;5954916;24;20487;-91
2022/08/08 13:06:54;;;;;;;6.87;6.47;;;;;;;;;;5957741;24;20385;-88
2022/08/08 13:09:30;;;;;;;4.47;4.37;;;;;;;;;;5960499;24;20390;-91
2022/08/08 13:15:07;;;;;;;4.90;4.70;;;;;;;;;;5960039;24;20381;-93
2022/08/08 13:23:11;;;;;;;3.90;3.87;;;;;;;;;;6000213;23;20444;-94
2022/08/08 13:25:40;;;;;;;7.10;4.47;;;;;;;;;;5977413;24;20398;-90
2022/08/08 13:31:04;;;;;;;5.10;4.70;;;;;;;;;;5965224;23;20446;-93
2022/08/08 13:33:33;;;;;;;3.87;3.77;;;;;;;;;;5963415;24;20489;-90
2022/08/08 13:36:02;;;;;;;4.77;4.50;;;;;;;;;;5964470;24;20438;-95
2022/08/08 13:38:32;;;;;;;4.97;4.77;;;;;;;;;;5959804;24;20410;-91
2022/08/08 13:40:59;;;;;;;3.87;3.57;;;;;;;;;;5962153;24;20418;-89
2022/08/08 13:43:36;;;;;;;5.13;4.90;;;;;;;;;;5964288;24;20429;-93
2022/08/08 13:46:13;;;;;;;4.80;4.60;;;;;;;;;;5961132;24;20433;-93
2022/08/08 13:48:43;;;;;;;3.83;3.53;;;;;;;;;;5965120;24;20763;-90
2022/08/08 13:51:24;;;;;;;4.17;3.97;;;;;;;;;;5961957;24;20391;-93
2022/08/08 13:59:40;;;;;;;4.70;4.40;;;;;;;;;;5984072;23;20521;-92
2022/08/08 14:02:13;;;;;;;4.03;3.83;;;;;;;;;;5933344;23;21555;-90
2022/08/08 14:04:40;;;;;;;4.43;4.23;;;;;;;;;;5949010;24;20448;-94
2022/08/08 14:07:08;;;;;;;4.20;4.00;;;;;;;;;;5941772;24;20411;-89
2022/08/08 14:12:10;;;;;;;4.13;3.93;;;;;;;;;;5971825;23;20572;-94
2022/08/08 14:15:02;;;;;;;3.90;3.80;;;;;;;;;;5973729;24;20390;-94
2022/08/08 14:17:28;;;;;;;4.60;4.40;;;;;;;;;;5938641;24;20406;-90
2022/08/08 14:20:02;;;;;;;3.90;3.77;;;;;;;;;;5962770;24;20410;-92
2022/08/08 14:22:28;;;;;;;3.50;3.50;;;;;;;;;;5960862;24;20418;-91
2022/08/08 14:24:56;;;;;;;3.53;3.43;;;;;;;;;;5956557;24;20417;-92
2022/08/08 14:27:32;;;;;;;3.40;3.40;;;;;;;;;;5963787;24;20522;-91
2022/08/08 14:29:59;;;;;;;3.53;3.47;;;;;;;;;;5961037;24;20504;-92
2022/08/08 14:32:26;;;;;;;4.27;4.07;;;;;;;;;;5964488;24;20931;-90
2022/08/08 14:34:53;;;;;;;5.33;3.97;;;;;;;;;;5970157;24;20406;-93
2022/08/08 14:37:20;;;;;;;3.80;3.70;;;;;;;;;;5966666;24;20452;-90
2022/08/08 14:39:57;;;;;;;3.97;3.77;;;;;;;;;;5968394;24;20422;-93
2022/08/08 14:42:28;;;;;;;8.00;3.40;;;;;;;;;;5970548;24;20413;-93
2022/08/08 14:45:06;;;;;;;4.50;4.20;;;;;;;;;;5964429;24;20497;-92
2022/08/08 14:47:43;;;;;;;4.87;4.40;;;;;;;;;;5967220;24;20761;-90
2022/08/08 14:50:11;;;;;;;3.50;3.40;;;;;;;;;;5961973;24;20462;-90
2022/08/08 14:52:46;;;;;;;3.73;3.40;;;;;;;;;;5963235;24;20394;-93
2022/08/08 14:55:13;;;;;;;4.60;4.40;;;;;;;;;;5966137;24;20431;-91
2022/08/08 14:57:40;;;;;;;3.67;3.40;;;;;;;;;;5967890;24;20374;-92
2022/08/08 15:00:12;;;;;;;4.03;3.93;;;;;;;;;;5969391;24;20439;-92
2022/08/08 15:02:39;;;;;;;3.70;3.60;;;;;;;;;;5965892;24;20472;-90
2022/08/08 15:05:12;;;;;;;4.20;4.00;;;;;;;;;;5971499;24;20422;-91
2022/08/08 15:07:38;;;;;;;4.17;3.90;;;;;;;;;;5954536;24;20401;-90
2022/08/08 15:10:10;;;;;;;3.73;3.63;;;;;;;;;;5965233;24;20485;-91
2022/08/08 15:12:37;;;;;;;3.83;3.63;;;;;;;;;;5969390;24;20410;-90
2022/08/08 15:15:04;;;;;;;3.70;3.53;;;;;;;;;;5968580;24;20441;-94
2022/08/08 15:17:30;;;;;;;4.80;3.87;;;;;;;;;;5970327;24;20414;-91
2022/08/08 15:19:56;;;;;;;4.47;4.17;;;;;;;;;;5966327;24;20471;-93
2022/08/08 15:22:30;;;;;;;4.50;4.00;;;;;;;;;;5963374;24;20501;-94
2022/08/08 15:25:08;;;;;;;3.80;3.70;;;;;;;;;;5966738;24;20446;-93
2022/08/08 15:27:34;;;;;;;4.80;4.30;;;;;;;;;;5971390;24;20430;-93
2022/08/08 15:30:01;;;;;;;4.20;3.90;;;;;;;;;;5967963;24;20397;-92
2022/08/08 15:32:28;;;;;;;3.63;3.43;;;;;;;;;;5970341;24;20407;-90
2022/08/08 15:34:57;;;;;;;4.57;4.33;;;;;;;;;;5966745;24;20401;-94
2022/08/08 15:37:24;;;;;;;4.30;4.00;;;;;;;;;;5966660;24;20426;-85
2022/08/08 15:39:52;;;;;;;3.77;3.77;;;;;;;;;;5965656;24;20740;-91
2022/08/08 15:42:26;;;;;;;4.03;3.93;;;;;;;;;;5970491;24;20382;-92
2022/08/08 15:44:54;;;;;;;5.73;4.70;;;;;;;;;;5965520;24;20398;-92
2022/08/08 15:47:23;;;;;;;4.00;3.90;;;;;;;;;;5971611;24;20399;-91
2022/08/08 15:49:59;;;;;;;3.87;3.77;;;;;;;;;;5972038;24;20460;-95
2022/08/08 15:52:25;;;;;;;3.43;3.43;;;;;;;;;;5967423;24;20393;-92
2022/08/08 15:54:51;;;;;;;4.87;4.23;;;;;;;;;;5972403;24;20402;-92
2022/08/08 15:57:20;;;;;;;4.10;4.00;;;;;;;;;;5971223;24;20426;-94
2022/08/08 15:59:47;;;;;;;3.67;3.50;;;;;;;;;;5968580;24;20382;-87
2022/08/08 16:02:13;;;;;;;3.60;3.40;;;;;;;;;;5964125;24;20513;-89
2022/08/08 16:04:40;;;;;;;8.00;7.43;;;;;;;;;;5955111;24;20427;-89
2022/08/08 16:07:06;;;;;;;4.53;4.13;;;;;;;;;;5953955;24;20473;-89
2022/08/08 16:09:32;;;;;;;3.40;3.30;;;;;;;;;;5951051;24;20421;-88
2022/08/08 16:11:58;;;;;;;3.20;2.90;;;;;;;;;;5953062;24;20484;-90
2022/08/08 16:14:24;;;;;;;3.70;3.37;;;;;;;;;;5953744;24;20393;-89
2022/08/08 16:16:51;;;;;;;3.27;3.10;;;;;;;;;;5957532;24;20513;-90
2022/08/08 16:19:17;;;;;;;3.80;3.70;;;;;;;;;;5952231;24;20391;-88
2022/08/08 16:21:43;;;;;;;3.70;3.47;;;;;;;;;;5953197;24;20497;-88
2022/08/08 16:24:13;;;;;;;2.63;2.63;;;;;;;;;;5946283;24;20422;-88
2022/08/08 16:26:40;;;;;;;3.57;3.47;;;;;;;;;;5952468;24;20435;-88
2022/08/08 16:29:08;;;;;;;3.27;3.17;;;;;;;;;;5949661;24;20401;-88
2022/08/08 16:31:34;;;;;;;4.53;3.50;;;;;;;;;;5954398;24;20699;-88
2022/08/08 16:34:00;;;;;;;4.03;3.53;;;;;;;;;;5948635;24;20379;-88
2022/08/08 16:36:27;;;;;;;3.90;3.80;;;;;;;;;;5955815;24;20514;-89
2022/08/08 16:38:54;;;;;;;3.60;3.50;;;;;;;;;;5955207;24;20410;-88
2022/08/08 16:41:20;;;;;;;3.40;3.30;;;;;;;;;;5957269;24;20458;-89
2022/08/08 16:43:46;;;;;;;3.07;3.07;;;;;;;;;;5955442;24;20397;-88
2022/08/08 16:46:13;;;;;;;3.03;2.93;;;;;;;;;;5957534;24;20391;-87
2022/08/08 16:48:41;;;;;;;5.50;5.20;;;;;;;;;;5964344;24;20381;-89
2022/08/08 16:51:10;;;;;;;4.00;3.80;;;;;;;;;;5968831;24;20375;-93
2022/08/08 16:53:36;;;;;;;3.63;3.23;;;;;;;;;;5964712;24;20397;-92
2022/08/08 16:56:03;;;;;;;3.20;3.10;;;;;;;;;;5963971;24;20437;-92
2022/08/08 16:58:54;;;;;;;3.67;3.47;;;;;;;;;;5964912;24;20661;-91